createdAt,value
2022-10-04T00:03:03.952Z,100.00
2022-10-04T00:06:11.909Z,100.00
2022-10-04T00:09:24.458Z,100.00
2022-10-04T00:12:28.810Z,100.00
2022-10-04T00:15:42.167Z,100.00
2022-10-04T00:18:53.882Z,100.00
2022-10-04T00:22:17.169Z,100.00
2022-10-04T00:25:31.177Z,100.00
2022-10-04T00:28:41.640Z,100.00
2022-10-04T00:31:46.830Z,100.00
2022-10-04T00:35:04.465Z,100.00
2022-10-04T00:38:24.481Z,100.00
2022-10-04T00:41:29.527Z,100.00
2022-10-04T00:44:53.958Z,100.00
2022-10-04T00:48:04.552Z,100.00
2022-10-04T00:51:12.747Z,100.00
2022-10-04T00:54:47.765Z,100.00
2022-10-04T00:57:58.059Z,100.00
2022-10-04T01:01:04.815Z,100.00
2022-10-04T01:04:10.370Z,100.00
2022-10-04T01:07:17.387Z,100.00
2022-10-04T01:10:36.073Z,100.00
2022-10-04T01:13:54.571Z,100.00
2022-10-04T01:16:59.580Z,100.00
2022-10-04T01:20:07.913Z,100.00
2022-10-04T01:23:14.482Z,100.00
2022-10-04T01:26:21.553Z,100.00
2022-10-04T01:29:44.214Z,100.00
2022-10-04T01:32:51.685Z,100.00
2022-10-04T01:35:58.385Z,100.00
2022-10-04T01:39:04.788Z,100.00
2022-10-04T01:42:18.851Z,100.00
2022-10-04T01:45:45.440Z,100.00
2022-10-04T01:48:51.535Z,100.00
2022-10-04T01:52:08.194Z,100.00
2022-10-04T01:55:29.025Z,100.00
2022-10-04T01:58:37.831Z,100.00
2022-10-04T02:01:51.708Z,100.00
2022-10-04T02:04:59.556Z,100.00
2022-10-04T02:08:04.810Z,100.00
2022-10-04T02:11:11.488Z,100.00
2022-10-04T02:14:18.125Z,100.00
2022-10-04T02:17:25.189Z,100.00
2022-10-04T02:20:40.921Z,100.00
2022-10-04T02:23:47.327Z,100.00
2022-10-04T02:26:53.520Z,100.00
2022-10-04T02:29:59.199Z,100.00
2022-10-04T02:33:11.077Z,100.00
2022-10-04T02:36:17.326Z,100.00
2022-10-04T02:39:31.071Z,100.00
2022-10-04T02:42:53.147Z,100.00
2022-10-04T02:49:54.102Z,100.00
2022-10-04T02:53:02.437Z,100.00
2022-10-04T02:56:09.402Z,100.00
2022-10-04T02:59:20.383Z,100.00
2022-10-04T03:02:38.533Z,100.00
2022-10-04T03:05:43.471Z,100.00
2022-10-04T03:08:59.138Z,100.00
2022-10-04T03:12:05.635Z,100.00
2022-10-04T03:15:12.511Z,100.00
2022-10-04T03:18:17.583Z,100.00
2022-10-04T03:21:25.364Z,100.00
2022-10-04T03:24:39.283Z,100.00
2022-10-04T03:27:48.857Z,100.00
2022-10-04T03:31:00.562Z,100.00
2022-10-04T03:34:06.261Z,100.00
2022-10-04T03:37:12.027Z,100.00
2022-10-04T03:40:17.367Z,100.00
2022-10-04T03:43:23.438Z,100.00
2022-10-04T03:46:30.487Z,100.00
2022-10-04T03:49:50.857Z,100.00
2022-10-04T03:52:52.616Z,100.00
2022-10-04T03:56:04.173Z,100.00
2022-10-04T03:59:08.021Z,100.00
2022-10-04T04:02:18.699Z,100.00
2022-10-04T04:05:45.807Z,100.00
2022-10-04T04:08:57.200Z,100.00
2022-10-04T04:12:04.567Z,100.00
2022-10-04T04:15:12.225Z,100.00
2022-10-04T04:18:23.240Z,100.00
2022-10-04T04:21:32.753Z,100.00
2022-10-04T04:24:45.410Z,100.00
2022-10-04T04:27:53.754Z,100.00
2022-10-04T04:31:03.288Z,100.00
2022-10-04T04:34:15.726Z,100.00
2022-10-04T04:37:23.934Z,100.00
2022-10-04T04:40:39.581Z,100.00
2022-10-04T04:43:45.272Z,100.00
2022-10-04T04:46:52.859Z,100.00
2022-10-04T04:49:58.915Z,100.00
2022-10-04T04:53:10.304Z,100.00
2022-10-04T04:56:18.617Z,100.00
2022-10-04T04:59:23.879Z,100.00
2022-10-04T05:02:45.233Z,100.00
2022-10-04T05:05:51.935Z,100.00
2022-10-04T05:09:02.611Z,100.00
2022-10-04T05:12:14.828Z,100.00
2022-10-04T05:15:22.474Z,100.00
2022-10-04T05:18:41.513Z,100.00
2022-10-04T05:21:50.739Z,100.00
2022-10-04T05:24:58.889Z,100.00
2022-10-04T05:28:03.958Z,100.00
2022-10-04T05:31:48.452Z,100.00
2022-10-04T05:34:56.630Z,100.00
2022-10-04T05:38:12.047Z,100.00
2022-10-04T05:41:33.494Z,100.00
2022-10-04T05:44:53.074Z,100.00
2022-10-04T05:47:56.072Z,100.00
2022-10-04T05:50:56.946Z,100.00
2022-10-04T05:54:01.936Z,100.00
2022-10-04T05:57:35.579Z,100.00
2022-10-04T06:01:13.469Z,100.00
2022-10-04T06:04:35.140Z,100.00
2022-10-04T06:08:01.028Z,100.00
2022-10-04T06:11:17.518Z,100.00
2022-10-04T06:15:10.050Z,100.00
2022-10-04T06:18:41.333Z,100.00
2022-10-04T06:22:18.520Z,100.00
2022-10-04T06:25:29.093Z,100.00
2022-10-04T06:28:51.304Z,100.00
2022-10-04T06:32:21.316Z,100.00
2022-10-04T06:35:35.798Z,100.00
2022-10-04T06:38:51.733Z,100.00
2022-10-04T06:42:41.639Z,100.00
2022-10-04T06:46:07.697Z,100.00
2022-10-04T06:49:41.201Z,100.00
2022-10-04T06:53:05.795Z,100.00
2022-10-04T06:56:50.478Z,99.78
2022-10-04T07:00:26.354Z,99.71
2022-10-04T07:04:07.084Z,98.82
2022-10-04T07:07:45.914Z,98.68
2022-10-04T07:11:12.210Z,97.33
2022-10-04T07:14:32.250Z,97.24
2022-10-04T07:17:48.878Z,96.06
2022-10-04T07:20:55.884Z,94.81
2022-10-04T07:24:13.230Z,93.81
2022-10-04T07:27:20.198Z,93.08
2022-10-04T07:30:33.081Z,93.32
2022-10-04T07:33:41.289Z,93.61
2022-10-04T07:37:12.776Z,92.49
2022-10-04T07:40:34.516Z,91.10
2022-10-04T07:43:52.155Z,88.12
2022-10-04T07:47:08.127Z,87.58
2022-10-04T07:50:14.240Z,86.71
2022-10-04T07:53:32.465Z,85.89
2022-10-04T07:56:49.156Z,85.78
2022-10-04T08:00:05.759Z,86.02
2022-10-04T08:03:55.753Z,85.52
2022-10-04T08:07:19.859Z,85.12
2022-10-04T08:10:45.563Z,82.16
2022-10-04T08:14:08.355Z,80.56
2022-10-04T08:17:39.859Z,80.57
2022-10-04T08:21:08.889Z,80.69
2022-10-04T08:24:41.073Z,80.67
2022-10-04T08:28:17.687Z,79.17
2022-10-04T08:31:35.461Z,78.33
2022-10-04T08:35:01.510Z,77.33
2022-10-04T08:38:36.476Z,78.11
2022-10-04T08:42:20.431Z,77.59
2022-10-04T08:45:59.598Z,77.38
2022-10-04T08:49:35.987Z,77.63
2022-10-04T08:53:11.681Z,76.47
2022-10-04T08:57:15.697Z,76.13
2022-10-04T09:00:33.453Z,75.14
2022-10-04T09:04:19.431Z,74.28
2022-10-04T09:07:49.725Z,74.54
2022-10-04T09:11:32.228Z,74.21
2022-10-04T09:15:13.563Z,73.20
2022-10-04T09:19:07.936Z,73.27
2022-10-04T09:22:33.733Z,70.15
2022-10-04T09:26:01.929Z,70.44
2022-10-04T09:29:34.479Z,71.69
2022-10-04T09:32:49.987Z,71.19
2022-10-04T09:36:30.769Z,68.00
2022-10-04T09:40:32.841Z,65.75
2022-10-04T09:44:11.483Z,64.41
2022-10-04T09:47:47.715Z,65.86
2022-10-04T09:51:21.514Z,64.94
2022-10-04T09:54:57.618Z,64.90
2022-10-04T09:59:01.224Z,63.33
2022-10-04T10:02:39.302Z,64.16
2022-10-04T10:06:28.621Z,63.49
2022-10-04T10:09:57.622Z,61.36
2022-10-04T10:13:31.883Z,62.95
2022-10-04T10:17:12.832Z,63.37
2022-10-04T10:20:42.910Z,64.15
2022-10-04T10:24:08.349Z,60.57
2022-10-04T10:27:41.237Z,61.03
2022-10-04T10:31:28.037Z,59.42
2022-10-04T10:34:49.722Z,60.79
2022-10-04T10:38:32.116Z,60.56
2022-10-04T10:41:58.971Z,60.54
2022-10-04T10:45:21.128Z,60.99
2022-10-04T10:48:36.143Z,59.49
2022-10-04T10:52:05.436Z,59.08
2022-10-04T10:55:44.185Z,57.01
2022-10-04T10:59:24.280Z,56.52
2022-10-04T11:03:13.159Z,56.57
2022-10-04T11:06:25.601Z,57.06
2022-10-04T11:10:13.037Z,56.16
2022-10-04T11:13:53.615Z,55.49
2022-10-04T11:17:22.262Z,55.03
2022-10-04T11:20:54.722Z,55.50
2022-10-04T11:24:52.402Z,56.73
2022-10-04T11:28:17.335Z,55.75
2022-10-04T11:32:00.446Z,57.72
2022-10-04T11:35:44.138Z,56.30
2022-10-04T11:39:07.164Z,56.31
2022-10-04T11:42:33.743Z,57.11
2022-10-04T11:46:11.158Z,56.22
2022-10-04T11:49:49.773Z,55.47
2022-10-04T11:53:33.402Z,56.12
2022-10-04T11:57:05.981Z,57.04
2022-10-04T12:00:34.021Z,57.58
2022-10-04T12:04:14.091Z,56.94
2022-10-04T12:08:01.418Z,58.13
2022-10-04T12:11:45.818Z,58.93
2022-10-04T12:15:01.511Z,56.18
2022-10-04T12:18:39.871Z,55.95
2022-10-04T12:22:16.957Z,55.97
2022-10-04T12:25:56.072Z,56.03
2022-10-04T12:29:27.132Z,55.66
2022-10-04T12:32:33.763Z,55.55
2022-10-04T12:35:48.459Z,55.99
2022-10-04T12:39:14.108Z,55.41
2022-10-04T12:42:44.793Z,56.08
2022-10-04T12:46:04.581Z,56.93
2022-10-04T12:49:24.030Z,56.53
2022-10-04T12:52:35.429Z,57.08
2022-10-04T12:56:09.344Z,57.58
2022-10-04T12:59:42.328Z,57.59
2022-10-04T13:02:56.854Z,55.63
2022-10-04T13:06:20.219Z,56.94
2022-10-04T13:09:32.703Z,57.52
2022-10-04T13:12:43.570Z,56.54
2022-10-04T13:18:57.959Z,56.65
2022-10-04T13:22:13.312Z,56.54
2022-10-04T13:25:45.198Z,56.75
2022-10-04T13:29:01.175Z,56.09
2022-10-04T13:32:14.476Z,56.27
2022-10-04T13:35:31.961Z,56.37
2022-10-04T13:39:05.810Z,55.62
2022-10-04T13:42:28.400Z,55.90
2022-10-04T13:46:13.651Z,56.01
2022-10-04T13:49:57.106Z,56.98
2022-10-04T13:53:37.283Z,56.63
2022-10-04T13:57:09.750Z,58.35
2022-10-04T14:00:27.058Z,57.57
2022-10-04T14:04:03.434Z,57.67
2022-10-04T14:07:47.626Z,57.79
2022-10-04T14:11:40.796Z,58.75
2022-10-04T14:15:17.939Z,59.81
2022-10-04T14:19:01.172Z,60.71
2022-10-04T14:22:10.037Z,61.27
2022-10-04T14:25:35.128Z,61.77
2022-10-04T14:29:22.992Z,61.26
2022-10-04T14:32:54.461Z,62.01
2022-10-04T14:36:11.815Z,62.07
2022-10-04T14:39:31.105Z,62.17
2022-10-04T14:43:03.422Z,62.91
2022-10-04T14:46:31.548Z,63.95
2022-10-04T14:50:16.086Z,64.26
2022-10-04T14:53:48.098Z,64.94
2022-10-04T14:57:20.942Z,65.14
2022-10-04T15:00:37.457Z,65.68
2022-10-04T15:04:09.481Z,66.33
2022-10-04T15:07:45.783Z,67.12
2022-10-04T15:10:52.454Z,67.48
2022-10-04T15:14:09.050Z,67.34
2022-10-04T15:17:18.510Z,66.91
2022-10-04T15:21:06.510Z,66.46
2022-10-04T15:24:34.729Z,66.16
2022-10-04T15:27:56.029Z,66.51
2022-10-04T15:31:08.301Z,66.83
2022-10-04T15:34:40.180Z,66.69
2022-10-04T15:38:14.471Z,66.79
2022-10-04T15:41:35.538Z,66.81
2022-10-04T15:45:05.089Z,66.50
2022-10-04T15:48:39.863Z,65.99
2022-10-04T15:52:14.749Z,66.17
2022-10-04T15:55:52.337Z,65.37
2022-10-04T15:59:36.282Z,65.38
2022-10-04T16:03:34.108Z,65.74
2022-10-04T16:06:48.701Z,65.71
2022-10-04T16:10:17.248Z,65.65
2022-10-04T16:13:37.136Z,65.71
2022-10-04T16:17:26.004Z,65.89
2022-10-04T16:20:42.771Z,65.77
2022-10-04T16:23:52.601Z,65.74
2022-10-04T16:27:03.450Z,65.89
2022-10-04T16:30:53.580Z,66.71
2022-10-04T16:34:22.284Z,68.30
2022-10-04T16:37:42.803Z,69.18
2022-10-04T16:41:01.233Z,70.87
2022-10-04T16:44:01.883Z,72.19
2022-10-04T16:47:07.217Z,73.02
2022-10-04T16:50:14.869Z,73.22
2022-10-04T16:53:45.138Z,73.05
2022-10-04T16:57:13.400Z,73.39
2022-10-04T17:00:47.346Z,73.88
2022-10-04T17:03:56.192Z,75.08
2022-10-04T17:07:26.478Z,76.05
2022-10-04T17:10:51.984Z,76.56
2022-10-04T17:14:12.405Z,77.32
2022-10-04T17:17:31.748Z,78.08
2022-10-04T17:20:59.167Z,77.95
2022-10-04T17:24:17.548Z,78.27
2022-10-04T17:27:59.993Z,78.85
2022-10-04T17:31:21.642Z,79.23
2022-10-04T17:35:21.593Z,80.00
2022-10-04T17:39:12.389Z,80.73
2022-10-04T17:42:50.699Z,81.07
2022-10-04T17:46:18.531Z,81.42
2022-10-04T17:50:19.966Z,82.09
2022-10-04T17:53:53.538Z,82.91
2022-10-04T17:57:06.479Z,84.06
2022-10-04T18:00:26.085Z,84.59
2022-10-04T18:03:57.095Z,85.09
2022-10-04T18:07:20.823Z,85.81
2022-10-04T18:10:52.468Z,86.52
2022-10-04T18:14:26.990Z,86.97
2022-10-04T18:17:48.816Z,87.56
2022-10-04T18:21:14.229Z,88.18
2022-10-04T18:24:37.681Z,88.48
2022-10-04T18:27:44.551Z,88.95
2022-10-04T18:31:06.650Z,89.53
2022-10-04T18:34:33.610Z,89.90
2022-10-04T18:37:51.306Z,90.25
2022-10-04T18:41:01.848Z,90.60
2022-10-04T18:44:16.100Z,90.86
2022-10-04T18:47:27.568Z,91.35
2022-10-04T18:50:53.688Z,91.95
2022-10-04T18:54:00.523Z,92.10
2022-10-04T18:57:35.650Z,92.20
2022-10-04T19:01:23.365Z,92.34
2022-10-04T19:04:33.353Z,92.40
2022-10-04T19:08:20.152Z,92.55
2022-10-04T19:11:30.975Z,92.86
2022-10-04T19:14:56.696Z,93.26
2022-10-04T19:18:47.507Z,93.77
2022-10-04T19:22:17.846Z,94.03
2022-10-04T19:26:09.919Z,94.18
2022-10-04T19:28:54.530Z,94.34
2022-10-04T19:32:17.019Z,94.70
2022-10-04T19:35:42.395Z,94.87
2022-10-04T19:38:57.288Z,95.30
2022-10-04T19:42:19.025Z,95.69
2022-10-04T19:45:55.019Z,95.79
2022-10-04T19:49:05.763Z,95.91
2022-10-04T19:52:30.392Z,96.02
2022-10-04T19:55:50.779Z,96.22
2022-10-04T19:59:15.024Z,96.64
2022-10-04T20:02:25.688Z,97.07
2022-10-04T20:05:35.073Z,97.61
2022-10-04T20:09:13.584Z,98.05
2022-10-04T20:12:20.100Z,98.28
2022-10-04T20:15:38.747Z,98.22
2022-10-04T20:18:57.929Z,98.41
2022-10-04T20:22:04.611Z,98.64
2022-10-04T20:25:04.565Z,98.92
2022-10-04T20:28:15.132Z,98.89
2022-10-04T20:31:20.413Z,98.78
2022-10-04T20:34:50.140Z,98.85
2022-10-04T20:38:30.522Z,98.92
2022-10-04T20:41:23.712Z,99.07
2022-10-04T20:44:30.208Z,99.08
2022-10-04T20:47:45.892Z,99.04
2022-10-04T20:50:56.860Z,98.96
2022-10-04T20:54:02.642Z,98.94
2022-10-04T20:57:08.639Z,98.96
2022-10-04T21:00:13.978Z,99.13
2022-10-04T21:03:30.349Z,99.28
2022-10-04T21:06:35.724Z,99.45
2022-10-04T21:09:42.634Z,99.43
2022-10-04T21:12:53.561Z,99.50
2022-10-04T21:16:12.305Z,99.49
2022-10-04T21:19:52.154Z,99.41
2022-10-04T21:22:58.525Z,99.48
2022-10-04T21:26:05.181Z,99.64
2022-10-04T21:29:12.470Z,99.97
2022-10-04T21:32:17.853Z,100.00
2022-10-04T21:35:24.613Z,100.00
2022-10-04T21:38:31.787Z,100.00
2022-10-04T21:41:36.859Z,100.00
2022-10-04T21:44:42.357Z,100.00
2022-10-04T21:47:48.337Z,100.00
2022-10-04T21:50:54.720Z,100.00
2022-10-04T21:54:02.103Z,100.00
2022-10-04T21:57:06.854Z,100.00
2022-10-04T22:00:13.271Z,100.00
2022-10-04T22:03:19.645Z,100.00
2022-10-04T22:06:25.995Z,100.00
2022-10-04T22:09:32.690Z,100.00
2022-10-04T22:12:38.526Z,100.00
2022-10-04T22:15:44.028Z,100.00
2022-10-04T22:18:50.123Z,100.00
2022-10-04T22:21:56.150Z,100.00
2022-10-04T22:25:02.673Z,100.00
2022-10-04T22:28:08.499Z,100.00
2022-10-04T22:31:14.936Z,100.00
2022-10-04T22:34:26.667Z,100.00
2022-10-04T22:37:38.302Z,100.00
2022-10-04T22:40:45.557Z,100.00
2022-10-04T22:43:51.674Z,100.00
2022-10-04T22:47:01.008Z,100.00
2022-10-04T22:50:07.291Z,100.00
2022-10-04T22:53:15.151Z,100.00
2022-10-04T22:56:21.294Z,100.00
2022-10-04T22:59:28.371Z,100.00
2022-10-04T23:02:39.386Z,100.00
2022-10-04T23:05:44.519Z,100.00
2022-10-04T23:08:50.229Z,100.00
2022-10-04T23:11:56.810Z,100.00
2022-10-04T23:15:03.963Z,100.00
2022-10-04T23:18:11.612Z,100.00
2022-10-04T23:21:19.850Z,100.00
2022-10-04T23:24:35.432Z,100.00
2022-10-04T23:27:40.333Z,100.00
2022-10-04T23:30:46.267Z,100.00
2022-10-04T23:33:52.366Z,100.00
2022-10-04T23:36:58.020Z,100.00
2022-10-04T23:40:03.732Z,100.00
2022-10-04T23:43:14.916Z,100.00
2022-10-04T23:46:33.085Z,100.00
2022-10-04T23:49:38.587Z,100.00
2022-10-04T23:52:53.451Z,100.00
2022-10-04T23:55:59.086Z,100.00
2022-10-04T23:59:06.695Z,100.00
